Orchid Ace — 7JDE — position and weather

sailwx.info

Track history (hours):
 
Tides and Currents Weather Stations Pressure Air Temp Water Temp Dewpoint Dewpoint Depression Visibility Wind Speed Wind Dir Waves Ship Positions

Orchid Ace

Last reported at 2018-Apr-14 01:53 UTC. Time now 2018-Apr-21 11:30 UTC.
Position N 34°01' E 132°46'.

Length 200 m; draft 7.3 m.

Type: Cargo ship. MMSI: 432651000.

Date/timePositionNaut miles runAvg speedWind from/ knotsBaromVisibWave heightAir tempDewpointWater temp
2018-Apr-14 01:53N 34°01' E 132°46'615.1
2018-Apr-14 01:30N 33°57' E 132°42'510.8
2018-Apr-14 01:00N 33°52' E 132°40'1 0.6
2018-Apr-13 23:44N 33°51' E 132°40'0 0.2
2018-Apr-13 23:23N 33°51' E 132°40'2 3.9
2018-Apr-13 22:57N 33°51' E 132°38'814.9
2018-Apr-13 22:26N 33°47' E 132°30'716.3
2018-Apr-13 22:01N 33°42' E 132°24'1516.9
2018-Apr-13 21:07N 33°32' E 132°10'219.4
2018-Apr-13 21:00N 33°31' E 132°09'1020.0
2018-Apr-13 20:30N 33°24' E 131°60'816.8
2018-Apr-13 20:00N 33°16' E 132°01'910.6
2018-Apr-13 19:11N 33°08' E 132°06'316.5
2018-Apr-13 19:00N 33°06' E 132°08'6212.6
2018-Apr-13 14:08N 32°43' E 133°16'25219.6
2018-Apr-13 01:18N 34°04' E 138°02'1419.7
2018-Apr-13 00:36N 34°10' E 138°17'219.2
2018-Apr-13 00:29N 34°11' E 138°19'919.0
2018-Apr-12 23:59N 34°15' E 138°30'919.0
2018-Apr-12 23:30N 34°18' E 138°40'1218.8
2018-Apr-12 22:52N 34°23' E 138°53'718.7
2018-Apr-12 22:30N 34°26' E 139°01'918.4
2018-Apr-12 22:00N 34°30' E 139°11'1018.7
2018-Apr-12 21:28N 34°35' E 139°21'919.4
2018-Apr-12 21:00N 34°39' E 139°31'1319.1
2018-Apr-12 20:20N 34°44' E 139°45'619.5
2018-Apr-12 20:01N 34°47' E 139°52'918.1
2018-Apr-12 19:30N 34°52' E 140°02'919.0
2018-Apr-12 19:00N 34°58' E 140°10'1020.0
2018-Apr-12 18:30N 35°04' E 140°20'1019.2
2018-Apr-12 17:58N 35°08' E 140°32'919.3
2018-Apr-12 17:30N 35°14' E 140°40'  
Track history (hours):
 
Tides and Currents Weather Stations Pressure Air Temp Water Temp Dewpoint Dewpoint Depression Visibility Wind Speed Wind Dir Waves Ship Positions

Orchid Ace

Last reported at 2018-Apr-14 01:53 UTC. Time now 2018-Apr-21 11:30 UTC.
Position N 34°01' E 132°46'.

Length 200 m; draft 7.3 m.

Type: Cargo ship. MMSI: 432651000.

Date/timePositionNaut miles runAvg speedWind from/ knotsBaromVisibWave heightAir tempDewpointWater temp
2018-Apr-14 01:53N 34°01' E 132°46'615.1
2018-Apr-14 01:30N 33°57' E 132°42'510.8
2018-Apr-14 01:00N 33°52' E 132°40'1 0.6
2018-Apr-13 23:44N 33°51' E 132°40'0 0.2
2018-Apr-13 23:23N 33°51' E 132°40'2 3.9
2018-Apr-13 22:57N 33°51' E 132°38'814.9
2018-Apr-13 22:26N 33°47' E 132°30'716.3
2018-Apr-13 22:01N 33°42' E 132°24'1516.9
2018-Apr-13 21:07N 33°32' E 132°10'219.4
2018-Apr-13 21:00N 33°31' E 132°09'1020.0
2018-Apr-13 20:30N 33°24' E 131°60'816.8
2018-Apr-13 20:00N 33°16' E 132°01'910.6
2018-Apr-13 19:11N 33°08' E 132°06'316.5
2018-Apr-13 19:00N 33°06' E 132°08'6212.6
2018-Apr-13 14:08N 32°43' E 133°16'25219.6
2018-Apr-13 01:18N 34°04' E 138°02'1419.7
2018-Apr-13 00:36N 34°10' E 138°17'219.2
2018-Apr-13 00:29N 34°11' E 138°19'919.0
2018-Apr-12 23:59N 34°15' E 138°30'919.0
2018-Apr-12 23:30N 34°18' E 138°40'1218.8
2018-Apr-12 22:52N 34°23' E 138°53'718.7
2018-Apr-12 22:30N 34°26' E 139°01'918.4
2018-Apr-12 22:00N 34°30' E 139°11'1018.7
2018-Apr-12 21:28N 34°35' E 139°21'919.4
2018-Apr-12 21:00N 34°39' E 139°31'1319.1
2018-Apr-12 20:20N 34°44' E 139°45'619.5
2018-Apr-12 20:01N 34°47' E 139°52'918.1
2018-Apr-12 19:30N 34°52' E 140°02'919.0
2018-Apr-12 19:00N 34°58' E 140°10'1020.0
2018-Apr-12 18:30N 35°04' E 140°20'1019.2
2018-Apr-12 17:58N 35°08' E 140°32'919.3
2018-Apr-12 17:30N 35°14' E 140°40'  

Dump ship's entire track history